X  Close Metar Aviation Weather Data     KSEA Seattle–Tacoma International Airport
Temperature
37°F Temperature
36°F Dewpoint
93% Humidity



Wind
3 MPH
5 KM/H
1 M/S
3 KTS



270°
West
Current Conditions

Mostly Cloudy Mostly Cloudy
Pressure 1027.12 (hPa) - 30.33 (inHg)
Visibility 10 (mile) - 16.1 (km)
Airport
Airport-code KSEA

Location: Seattle–Tacoma International Airport
Distance: 14 (mi)

Metar:
KSEA 260235Z 27003KT 10SM BKN020 BKN220 03/02 A3033 RMK AO2 T00330017

Time: 11-25-2022 18:35 PST